createdAt,value
2022-12-31T00:02:14.187Z,74.77
2022-12-31T00:04:59.625Z,73.79
2022-12-31T00:07:44.484Z,74.45
2022-12-31T00:10:29.453Z,73.97
2022-12-31T00:13:14.374Z,71.54
2022-12-31T00:15:59.475Z,73.14
2022-12-31T00:18:44.433Z,73.60
2022-12-31T00:21:29.338Z,73.83
2022-12-31T00:24:14.312Z,73.45
2022-12-31T00:26:59.239Z,73.54
2022-12-31T00:29:44.143Z,74.18
2022-12-31T00:32:29.108Z,74.87
2022-12-31T00:35:14.041Z,73.02
2022-12-31T00:37:59.033Z,74.65
2022-12-31T00:40:44.005Z,74.62
2022-12-31T00:43:28.867Z,74.09
2022-12-31T00:46:13.724Z,74.30
2022-12-31T00:48:58.619Z,74.10
2022-12-31T00:51:43.498Z,75.78
2022-12-31T00:54:28.489Z,74.33
2022-12-31T00:57:13.243Z,73.70
2022-12-31T00:59:58.026Z,74.02
2022-12-31T01:02:43.045Z,74.32
2022-12-31T01:05:27.901Z,74.14
2022-12-31T01:08:12.834Z,73.26
2022-12-31T01:10:57.745Z,73.69
2022-12-31T01:13:42.602Z,75.04
2022-12-31T01:16:27.387Z,74.18
2022-12-31T01:19:12.502Z,75.26
2022-12-31T01:21:57.702Z,75.13
2022-12-31T01:24:42.551Z,76.47
2022-12-31T01:27:27.510Z,74.78
2022-12-31T01:30:12.229Z,74.61
2022-12-31T01:32:57.099Z,73.81
2022-12-31T01:35:41.848Z,76.14
2022-12-31T01:38:26.689Z,76.28
2022-12-31T01:41:11.811Z,74.67
2022-12-31T01:43:56.713Z,74.89
2022-12-31T01:46:41.642Z,75.84
2022-12-31T01:49:26.500Z,74.78
2022-12-31T01:52:11.637Z,76.06
2022-12-31T01:54:56.662Z,75.51
2022-12-31T01:57:41.519Z,75.82
2022-12-31T02:00:26.244Z,75.42
2022-12-31T02:03:11.491Z,73.73
2022-12-31T02:05:56.611Z,74.45
2022-12-31T02:08:42.392Z,74.22
2022-12-31T02:11:27.416Z,73.36
2022-12-31T02:14:12.293Z,73.41
2022-12-31T02:16:57.213Z,73.23
2022-12-31T02:19:42.087Z,73.94
2022-12-31T02:22:26.933Z,74.43
2022-12-31T02:25:12.311Z,74.60
2022-12-31T02:27:57.132Z,74.45
2022-12-31T02:30:41.873Z,75.56
2022-12-31T02:33:26.684Z,75.05
2022-12-31T02:36:11.580Z,73.96
2022-12-31T02:38:56.342Z,74.60
2022-12-31T02:41:41.142Z,74.09
2022-12-31T02:44:26.023Z,73.64
2022-12-31T02:47:11.011Z,75.40
2022-12-31T02:49:55.745Z,73.91
2022-12-31T02:52:40.778Z,74.07
2022-12-31T02:55:25.634Z,73.82
2022-12-31T02:58:10.575Z,73.85
2022-12-31T03:00:55.621Z,74.17
2022-12-31T03:03:40.833Z,73.58
2022-12-31T03:06:28.404Z,73.51
2022-12-31T03:09:13.273Z,72.62
2022-12-31T03:11:58.175Z,72.90
2022-12-31T03:14:43.034Z,72.91
2022-12-31T03:17:27.916Z,72.72
2022-12-31T03:20:12.932Z,73.01
2022-12-31T03:22:57.734Z,73.41
2022-12-31T03:25:42.727Z,74.32
2022-12-31T03:28:27.474Z,74.72
2022-12-31T03:31:12.516Z,74.85
2022-12-31T03:33:57.294Z,73.23
2022-12-31T03:36:42.128Z,74.34
2022-12-31T03:39:27.109Z,74.46
2022-12-31T03:42:11.974Z,75.23
2022-12-31T03:44:56.949Z,75.21
2022-12-31T03:47:41.764Z,75.39
2022-12-31T03:50:26.793Z,75.35
2022-12-31T03:53:11.738Z,74.97
2022-12-31T03:55:56.672Z,75.73
2022-12-31T03:58:41.348Z,75.18
2022-12-31T04:01:26.502Z,75.70
2022-12-31T04:04:11.918Z,76.11
2022-12-31T04:06:56.792Z,74.81
2022-12-31T04:09:41.833Z,74.92
2022-12-31T04:12:26.537Z,74.32
2022-12-31T04:15:11.435Z,73.97
2022-12-31T04:17:56.192Z,74.50
2022-12-31T04:20:41.124Z,74.87
2022-12-31T04:23:25.906Z,74.73
2022-12-31T04:26:10.946Z,74.43
2022-12-31T04:28:55.786Z,74.38
2022-12-31T04:31:40.843Z,73.43
2022-12-31T04:34:25.737Z,73.33
2022-12-31T04:37:10.542Z,73.66
2022-12-31T04:39:58.972Z,75.19
2022-12-31T04:42:46.927Z,74.57
2022-12-31T04:45:31.819Z,74.25
2022-12-31T04:48:16.737Z,75.06
2022-12-31T04:51:01.467Z,75.04
2022-12-31T04:53:46.420Z,75.34
2022-12-31T04:56:31.296Z,75.42
2022-12-31T04:59:16.449Z,75.21
2022-12-31T05:02:01.405Z,74.92
2022-12-31T05:04:46.457Z,74.76
2022-12-31T05:07:31.373Z,74.36
2022-12-31T05:10:16.158Z,74.14
2022-12-31T05:13:01.198Z,74.77
2022-12-31T05:15:46.162Z,75.15
2022-12-31T05:18:31.202Z,74.42
2022-12-31T05:21:16.226Z,75.54
2022-12-31T05:24:01.130Z,74.63
2022-12-31T05:26:46.076Z,75.51
2022-12-31T05:29:31.021Z,75.32
2022-12-31T05:32:16.169Z,74.27
2022-12-31T05:35:00.951Z,75.92
2022-12-31T05:37:45.888Z,76.16
2022-12-31T05:40:30.692Z,75.09
2022-12-31T05:43:15.643Z,74.36
2022-12-31T05:46:00.696Z,75.92
2022-12-31T05:48:45.478Z,77.45
2022-12-31T05:51:30.447Z,76.19
2022-12-31T05:54:15.413Z,76.23
2022-12-31T05:57:00.485Z,76.31
2022-12-31T05:59:45.279Z,74.60
2022-12-31T06:02:30.134Z,75.02
2022-12-31T06:05:14.943Z,75.92
2022-12-31T06:07:59.991Z,75.32
2022-12-31T06:10:44.841Z,75.55
2022-12-31T06:13:29.732Z,75.03
2022-12-31T06:16:14.820Z,75.08
2022-12-31T06:19:00.080Z,74.79
2022-12-31T06:21:44.988Z,74.33
2022-12-31T06:24:29.875Z,73.99
2022-12-31T06:27:14.753Z,75.25
2022-12-31T06:29:59.587Z,76.04
2022-12-31T06:32:44.637Z,74.87
2022-12-31T06:35:29.645Z,74.57
2022-12-31T06:38:14.500Z,75.41
2022-12-31T06:40:59.453Z,75.80
2022-12-31T06:43:44.321Z,74.12
2022-12-31T06:46:29.402Z,74.67
2022-12-31T06:49:14.231Z,73.70
2022-12-31T06:51:59.184Z,73.77
2022-12-31T06:54:44.121Z,74.19
2022-12-31T06:57:29.170Z,73.68
2022-12-31T07:00:14.155Z,74.01
2022-12-31T07:02:59.040Z,74.71
2022-12-31T07:05:43.945Z,74.60
2022-12-31T07:08:28.813Z,74.24
2022-12-31T07:11:13.691Z,74.89
2022-12-31T07:13:58.424Z,73.94
2022-12-31T07:16:43.273Z,74.13
2022-12-31T07:19:28.103Z,73.93
2022-12-31T07:22:13.049Z,73.24
2022-12-31T07:24:57.901Z,74.40
2022-12-31T07:27:42.774Z,74.42
2022-12-31T07:30:27.846Z,74.41
2022-12-31T07:33:12.896Z,73.43
2022-12-31T07:35:57.832Z,72.56
2022-12-31T07:38:42.635Z,72.33
2022-12-31T07:41:27.469Z,73.29
2022-12-31T07:44:12.374Z,73.00
2022-12-31T07:46:57.313Z,73.22
2022-12-31T07:49:42.745Z,73.38
2022-12-31T07:52:27.491Z,73.03
2022-12-31T07:55:12.466Z,72.41
2022-12-31T07:57:57.380Z,73.37
2022-12-31T08:00:42.237Z,73.72
2022-12-31T08:03:27.007Z,72.62
2022-12-31T08:06:12.088Z,71.89
2022-12-31T08:08:56.747Z,72.72
2022-12-31T08:11:41.626Z,72.20
2022-12-31T08:14:26.434Z,70.93
2022-12-31T08:17:11.343Z,71.05
2022-12-31T08:19:56.344Z,70.03
2022-12-31T08:22:41.140Z,70.27
2022-12-31T08:25:26.112Z,69.51
2022-12-31T08:28:10.968Z,69.64
2022-12-31T08:30:55.951Z,69.90
2022-12-31T08:33:40.664Z,68.96
2022-12-31T08:36:25.522Z,68.37
2022-12-31T08:39:10.471Z,68.37
2022-12-31T08:41:55.781Z,67.97
2022-12-31T08:44:40.746Z,68.99
2022-12-31T08:47:25.625Z,68.22
2022-12-31T08:50:10.500Z,68.78
2022-12-31T08:52:55.433Z,69.21
2022-12-31T08:55:40.234Z,69.69
2022-12-31T08:58:25.071Z,69.14
2022-12-31T09:01:10.067Z,68.50
2022-12-31T09:03:54.892Z,69.09
2022-12-31T09:06:39.812Z,69.22
2022-12-31T09:09:24.836Z,67.39
2022-12-31T09:12:09.646Z,66.78
2022-12-31T09:14:54.535Z,69.24
2022-12-31T09:17:39.343Z,66.60
2022-12-31T09:20:24.192Z,68.06
2022-12-31T09:23:09.122Z,65.83
2022-12-31T09:25:54.147Z,66.11
2022-12-31T09:28:39.084Z,65.92
2022-12-31T09:31:24.056Z,66.24
2022-12-31T09:34:08.864Z,66.41
2022-12-31T09:36:53.656Z,65.64
2022-12-31T09:39:38.611Z,65.92
2022-12-31T09:42:23.454Z,66.23
2022-12-31T09:45:08.597Z,65.72
2022-12-31T09:47:53.515Z,66.07
2022-12-31T09:50:38.415Z,66.50
2022-12-31T09:53:23.313Z,65.90
2022-12-31T09:56:08.260Z,63.87
2022-12-31T09:58:53.220Z,63.37
2022-12-31T10:01:38.133Z,63.59
2022-12-31T10:04:23.522Z,63.81
2022-12-31T10:07:08.351Z,61.67
2022-12-31T10:09:53.299Z,62.53
2022-12-31T10:12:38.226Z,63.31
2022-12-31T10:15:23.050Z,63.82
2022-12-31T10:18:07.955Z,62.39
2022-12-31T10:20:52.898Z,62.09
2022-12-31T10:23:37.786Z,61.62
2022-12-31T10:26:22.503Z,61.43
2022-12-31T10:29:07.492Z,61.98
2022-12-31T10:31:52.275Z,60.38
2022-12-31T10:34:37.271Z,60.46
2022-12-31T10:37:22.044Z,59.77
2022-12-31T10:40:06.930Z,59.85
2022-12-31T10:42:51.792Z,61.01
2022-12-31T10:45:36.688Z,60.76
2022-12-31T10:48:21.686Z,61.07
2022-12-31T10:51:06.619Z,60.91
2022-12-31T10:53:51.707Z,61.65
2022-12-31T10:56:36.487Z,61.52
2022-12-31T10:59:21.323Z,61.51
2022-12-31T11:02:06.410Z,60.16
2022-12-31T11:04:51.629Z,60.25
2022-12-31T11:07:36.381Z,59.71
2022-12-31T11:10:21.376Z,60.76
2022-12-31T11:13:06.267Z,59.32
2022-12-31T11:15:51.020Z,59.70
2022-12-31T11:18:35.965Z,60.08
2022-12-31T11:21:26.348Z,59.64
2022-12-31T11:24:13.097Z,58.83
2022-12-31T11:26:58.033Z,59.38
2022-12-31T11:29:42.793Z,58.19
2022-12-31T11:32:27.722Z,59.04
2022-12-31T11:35:12.778Z,58.42
2022-12-31T11:37:57.743Z,58.76
2022-12-31T11:40:42.577Z,57.99
2022-12-31T11:43:27.648Z,58.32
2022-12-31T11:46:13.237Z,58.83
2022-12-31T11:48:58.581Z,59.50
2022-12-31T11:51:49.973Z,59.29
2022-12-31T11:54:35.588Z,59.88
2022-12-31T11:57:20.574Z,59.29
2022-12-31T12:00:05.514Z,59.54
2022-12-31T12:02:50.391Z,58.19
2022-12-31T12:05:35.265Z,59.30
2022-12-31T12:08:20.151Z,59.60
2022-12-31T12:11:05.015Z,59.86
2022-12-31T12:13:49.875Z,59.37
2022-12-31T12:16:34.722Z,57.90
2022-12-31T12:19:19.578Z,58.46
2022-12-31T12:22:04.467Z,58.23
2022-12-31T12:24:49.408Z,58.74
2022-12-31T12:27:34.299Z,59.31
2022-12-31T12:30:19.147Z,58.27
2022-12-31T12:33:04.057Z,57.80
2022-12-31T12:35:48.961Z,58.12
2022-12-31T12:38:33.809Z,55.94
2022-12-31T12:41:18.682Z,57.27
2022-12-31T12:44:03.502Z,58.04
2022-12-31T12:46:48.746Z,57.40
2022-12-31T12:49:33.696Z,57.92
2022-12-31T12:52:18.843Z,58.05
2022-12-31T12:55:03.795Z,57.23
2022-12-31T12:57:48.829Z,58.79
2022-12-31T13:00:33.761Z,58.16
2022-12-31T13:03:18.468Z,58.62
2022-12-31T13:06:03.356Z,57.60
2022-12-31T13:08:48.355Z,56.49
2022-12-31T13:11:33.304Z,54.27
2022-12-31T13:14:18.167Z,56.71
2022-12-31T13:17:03.205Z,55.40
2022-12-31T13:19:47.897Z,53.73
2022-12-31T13:22:32.935Z,54.20
2022-12-31T13:25:17.850Z,52.99
2022-12-31T13:28:02.729Z,53.98
2022-12-31T13:30:47.613Z,53.73
2022-12-31T13:33:32.758Z,54.05
2022-12-31T13:36:17.623Z,53.69
2022-12-31T13:39:02.514Z,55.49
2022-12-31T13:41:47.606Z,55.65
2022-12-31T13:44:32.405Z,55.46
2022-12-31T13:47:17.333Z,55.33
2022-12-31T13:50:02.124Z,54.60
2022-12-31T13:52:46.997Z,55.63
2022-12-31T13:55:31.759Z,56.82
2022-12-31T13:58:16.711Z,57.58
2022-12-31T14:01:02.968Z,56.54
2022-12-31T14:03:48.085Z,56.20
2022-12-31T14:06:33.053Z,55.81
2022-12-31T14:09:17.763Z,56.60
2022-12-31T14:12:02.609Z,58.05
2022-12-31T14:14:47.382Z,56.98
2022-12-31T14:17:32.316Z,55.19
2022-12-31T14:20:17.291Z,57.39
2022-12-31T14:23:02.257Z,55.93
2022-12-31T14:25:47.236Z,57.07
2022-12-31T14:28:31.939Z,57.71
2022-12-31T14:31:17.097Z,58.01
2022-12-31T14:34:02.341Z,57.44
2022-12-31T14:36:47.163Z,58.37
2022-12-31T14:39:32.073Z,57.74
2022-12-31T14:42:16.957Z,58.55
2022-12-31T14:45:01.850Z,59.09
2022-12-31T14:47:46.639Z,58.61
2022-12-31T14:50:31.581Z,58.36
2022-12-31T14:53:16.347Z,58.47
2022-12-31T14:56:01.445Z,56.43
2022-12-31T14:58:46.247Z,56.09
2022-12-31T15:01:31.320Z,56.12
2022-12-31T15:04:16.519Z,54.96
2022-12-31T15:07:01.490Z,56.26
2022-12-31T15:09:46.350Z,56.61
2022-12-31T15:12:33.580Z,58.19
2022-12-31T15:15:18.786Z,58.26
2022-12-31T15:18:03.534Z,58.80
2022-12-31T15:20:48.449Z,59.47
2022-12-31T15:23:33.307Z,58.91
2022-12-31T15:26:18.250Z,59.70
2022-12-31T15:29:03.207Z,59.62
2022-12-31T15:31:47.933Z,59.64
2022-12-31T15:34:32.837Z,59.56
2022-12-31T15:37:17.657Z,58.08
2022-12-31T15:40:02.705Z,59.63
2022-12-31T15:42:50.194Z,58.21
2022-12-31T15:45:35.243Z,58.61
2022-12-31T15:48:20.229Z,60.03
2022-12-31T15:51:05.166Z,60.04
2022-12-31T15:53:50.322Z,60.85
2022-12-31T15:56:35.104Z,60.09
2022-12-31T15:59:20.064Z,60.38
2022-12-31T16:02:04.962Z,60.86
2022-12-31T16:04:50.229Z,60.65
2022-12-31T16:07:35.197Z,60.18
2022-12-31T16:10:20.043Z,60.58
2022-12-31T16:13:05.012Z,60.09
2022-12-31T16:15:49.795Z,60.97
2022-12-31T16:18:34.839Z,59.81
2022-12-31T16:21:19.642Z,60.44
2022-12-31T16:24:04.556Z,59.74
2022-12-31T16:26:49.759Z,61.00
2022-12-31T16:29:34.544Z,60.28
2022-12-31T16:32:19.372Z,60.41
2022-12-31T16:35:07.411Z,60.64
2022-12-31T16:37:57.223Z,61.48
2022-12-31T16:40:42.000Z,60.09
2022-12-31T16:43:26.866Z,60.74
2022-12-31T16:46:11.943Z,60.22
2022-12-31T16:48:57.184Z,60.74
2022-12-31T16:51:42.207Z,60.43
2022-12-31T16:54:27.088Z,61.34
2022-12-31T16:57:11.998Z,60.92
2022-12-31T16:59:56.973Z,60.96
2022-12-31T17:02:41.950Z,60.43
2022-12-31T17:05:27.301Z,60.88
2022-12-31T17:08:12.098Z,60.49
2022-12-31T17:10:57.118Z,62.06
2022-12-31T17:13:42.015Z,61.91
2022-12-31T17:16:26.961Z,60.69
2022-12-31T17:19:11.861Z,60.77
2022-12-31T17:21:56.708Z,60.51
2022-12-31T17:24:41.693Z,61.08
2022-12-31T17:27:26.739Z,61.30
2022-12-31T17:30:11.641Z,62.13
2022-12-31T17:32:56.455Z,63.07
2022-12-31T17:35:41.369Z,62.64
2022-12-31T17:38:26.447Z,61.89
2022-12-31T17:41:11.290Z,62.24
2022-12-31T17:43:56.312Z,62.64
2022-12-31T17:46:41.274Z,62.73
2022-12-31T17:49:26.081Z,63.18
2022-12-31T17:52:10.939Z,63.10
2022-12-31T17:54:55.917Z,63.88
2022-12-31T17:57:40.855Z,62.93
2022-12-31T18:00:25.989Z,62.45
2022-12-31T18:03:11.042Z,63.35
2022-12-31T18:05:56.293Z,62.99
2022-12-31T18:08:41.329Z,62.98
2022-12-31T18:11:26.007Z,63.69
2022-12-31T18:14:11.195Z,64.09
2022-12-31T18:16:56.083Z,64.24
2022-12-31T18:20:06.495Z,63.82
2022-12-31T18:22:46.459Z,64.10
2022-12-31T18:25:31.212Z,64.01
2022-12-31T18:28:16.156Z,64.79
2022-12-31T18:31:01.046Z,64.59
2022-12-31T18:33:46.087Z,64.46
2022-12-31T18:36:31.015Z,64.96
2022-12-31T18:39:15.931Z,65.46
2022-12-31T18:42:00.790Z,64.97
2022-12-31T18:44:45.767Z,65.78
2022-12-31T18:47:37.307Z,64.72
2022-12-31T18:50:22.750Z,64.60
2022-12-31T18:53:07.629Z,64.91
2022-12-31T18:55:52.704Z,64.99
2022-12-31T18:58:37.522Z,64.12
2022-12-31T19:01:22.614Z,64.77
2022-12-31T19:04:08.003Z,65.45
2022-12-31T19:06:52.761Z,66.23
2022-12-31T19:09:46.400Z,65.00
2022-12-31T19:12:32.318Z,65.66
2022-12-31T19:15:17.229Z,66.21
2022-12-31T19:18:02.111Z,66.89
2022-12-31T19:20:46.998Z,66.28
2022-12-31T19:23:31.825Z,67.37
2022-12-31T19:26:16.891Z,67.67
2022-12-31T19:29:01.807Z,66.63
2022-12-31T19:31:46.863Z,68.17
2022-12-31T19:34:32.147Z,65.95
2022-12-31T19:37:17.053Z,66.95
2022-12-31T19:40:01.785Z,66.43
2022-12-31T19:42:46.713Z,67.38
2022-12-31T19:45:31.616Z,66.42
2022-12-31T19:48:16.422Z,66.74
2022-12-31T19:51:01.202Z,64.47
2022-12-31T19:53:46.150Z,63.76
2022-12-31T19:56:31.169Z,64.63
2022-12-31T19:59:16.014Z,65.25
2022-12-31T20:02:01.121Z,64.83
2022-12-31T20:04:46.368Z,63.92
2022-12-31T20:07:31.342Z,64.36
2022-12-31T20:10:16.136Z,65.11
2022-12-31T20:13:01.016Z,64.24
2022-12-31T20:15:45.990Z,64.70
2022-12-31T20:18:31.009Z,65.46
2022-12-31T20:21:15.856Z,66.12
2022-12-31T20:24:00.637Z,65.45
2022-12-31T20:26:45.458Z,66.72
2022-12-31T20:29:30.349Z,65.31
2022-12-31T20:32:15.174Z,65.13
2022-12-31T20:35:00.154Z,65.64
2022-12-31T20:37:45.068Z,65.13
2022-12-31T20:40:30.102Z,64.63
2022-12-31T20:43:14.851Z,65.77
2022-12-31T20:45:59.830Z,65.31
2022-12-31T20:48:44.751Z,65.83
2022-12-31T20:51:29.689Z,65.68
2022-12-31T20:54:14.745Z,65.86
2022-12-31T20:57:00.210Z,65.17
2022-12-31T20:59:45.229Z,65.66
2022-12-31T21:02:41.301Z,65.51
2022-12-31T21:05:27.437Z,65.81
2022-12-31T21:08:12.502Z,65.62
2022-12-31T21:10:57.376Z,64.92
2022-12-31T21:13:42.176Z,65.12
2022-12-31T21:16:27.154Z,66.23
2022-12-31T21:19:12.256Z,65.26
2022-12-31T21:21:57.500Z,65.63
2022-12-31T21:24:42.360Z,64.36
2022-12-31T21:27:27.352Z,63.77
2022-12-31T21:30:19.930Z,64.96
2022-12-31T21:33:05.122Z,65.03
2022-12-31T21:35:53.770Z,64.66
2022-12-31T21:38:38.962Z,65.67
2022-12-31T21:41:24.252Z,66.31
2022-12-31T21:44:09.142Z,66.02
2022-12-31T21:47:33.466Z,66.32
2022-12-31T21:49:59.229Z,65.79
2022-12-31T21:52:44.094Z,65.21
2022-12-31T21:55:28.964Z,66.99
2022-12-31T21:58:29.166Z,68.12
2022-12-31T22:01:14.376Z,71.22
2022-12-31T22:03:59.563Z,70.48
2022-12-31T22:06:44.547Z,69.98
2022-12-31T22:09:29.365Z,69.60
2022-12-31T22:12:14.359Z,69.99
2022-12-31T22:15:14.318Z,69.82
2022-12-31T22:18:01.195Z,69.10
2022-12-31T22:20:46.054Z,68.96
2022-12-31T22:23:30.843Z,68.31
2022-12-31T22:26:15.734Z,67.31
2022-12-31T22:29:00.580Z,68.42
2022-12-31T22:31:45.457Z,68.34
2022-12-31T22:34:30.444Z,69.16
2022-12-31T22:37:46.392Z,67.60
2022-12-31T22:40:20.649Z,69.20
2022-12-31T22:43:05.275Z,69.85
2022-12-31T22:45:50.230Z,69.76
2022-12-31T22:48:35.186Z,68.51
2022-12-31T22:51:20.068Z,68.76
2022-12-31T22:54:05.004Z,70.59
2022-12-31T22:56:49.964Z,71.43
2022-12-31T22:59:34.941Z,72.31
2022-12-31T23:02:19.796Z,72.10
2022-12-31T23:05:16.249Z,69.94
2022-12-31T23:08:06.084Z,70.23
2022-12-31T23:10:55.262Z,70.35
2022-12-31T23:13:43.312Z,69.65
2022-12-31T23:16:32.791Z,69.69
2022-12-31T23:19:17.727Z,69.89
2022-12-31T23:22:02.632Z,69.50
2022-12-31T23:24:47.548Z,67.93
2022-12-31T23:27:32.220Z,67.40
2022-12-31T23:30:17.180Z,67.76
2022-12-31T23:33:02.144Z,69.71
2022-12-31T23:35:47.062Z,69.37
2022-12-31T23:38:31.911Z,68.20
2022-12-31T23:41:16.815Z,69.66
2022-12-31T23:44:01.735Z,69.53
2022-12-31T23:46:46.529Z,69.09
2022-12-31T23:49:31.375Z,69.20
2022-12-31T23:52:16.241Z,67.45
2022-12-31T23:55:01.195Z,67.53
2022-12-31T23:57:46.043Z,68.42
